Phaethon — SVAM2 — position and weather

sailwx.info

Track history (hours):
 
Tides and Currents Weather Stations Pressure Air Temp Water Temp Dewpoint Dewpoint Depression Visibility Wind Speed Wind Dir Waves Ship Positions

Phaethon

Last reported at 2018-May-26 04:20 UTC. Time now 2018-May-26 04:30 UTC.
Position N 36°58' E 001°04'.

Length 274 m; draft 16 m.

Type: Ship. MMSI: 240836000.

Date/timePositionNaut miles runAvg speedWind from/ knotsBaromVisibWave heightAir tempDewpointWater temp
2018-May-26 04:20N 36°58' E 001°04'59212.1
2018-May-24 03:24N 36°44' E 013°23'512.6
2018-May-24 03:00N 36°41' E 013°28'612.6
2018-May-24 02:30N 36°38' E 013°35'612.4
2018-May-24 02:00N 36°35' E 013°42'612.2
2018-May-24 01:30N 36°34' E 013°49'612.3
2018-May-24 01:00N 36°32' E 013°57'612.4
2018-May-24 00:30N 36°30' E 014°04'612.4
2018-May-24 00:00N 36°28' E 014°11'612.2
2018-May-23 23:30N 36°26' E 014°19'812.2
2018-May-23 22:52N 36°24' E 014°28'512.3
2018-May-23 22:30N 36°23' E 014°33'612.3
2018-May-23 22:00N 36°20' E 014°40'  
2018-May-21 14:38N 37°09' E 015°47'7 1.1
2018-May-21 08:09N 37°05' E 015°40'8 1.2
2018-May-21 02:00N 37°11' E 015°45'2 1.2
2018-May-21 00:30N 37°13' E 015°46'1 1.1
2018-May-21 00:00N 37°13' E 015°46'1 1.2
2018-May-20 23:20N 37°14' E 015°46'1 1.3
2018-May-20 22:55N 37°15' E 015°46'1 1.2
2018-May-20 22:29N 37°15' E 015°45'9 2.1
2018-May-20 18:18N 37°13' E 015°35'2 2.1
2018-May-20 17:25N 37°15' E 015°33'4 1.8
2018-May-20 15:00N 37°19' E 015°33'1 0.9
2018-May-20 14:01N 37°19' E 015°34'0 0.9
2018-May-20 13:56N 37°19' E 015°34'0 1.0
2018-May-20 13:30N 37°19' E 015°34'1 1.0
2018-May-20 12:35N 37°19' E 015°35'1 1.0
2018-May-20 12:01N 37°19' E 015°36'0 1.0
2018-May-20 11:36N 37°19' E 015°37'3 1.7
2018-May-20 09:31N 37°16' E 015°37'0 3.7
2018-May-20 09:28N 37°16' E 015°37'2 3.7
2018-May-20 09:00N 37°14' E 015°37'4 1.5
2018-May-20 06:05N 37°10' E 015°39'0 1.2
2018-May-20 05:59N 37°10' E 015°39'6 0.4
2018-May-19 15:31N 37°12' E 015°32'0 5.4
2018-May-19 15:28N 37°12' E 015°31'69 8.6
2018-May-19 07:27N 36°23' E 014°32'613.3
2018-May-19 07:00N 36°25' E 014°25'713.4
2018-May-19 06:30N 36°27' E 014°17'713.5
2018-May-19 06:00N 36°29' E 014°09'713.8
2018-May-19 05:30N 36°31' E 014°01'714.1
2018-May-19 05:00N 36°34' E 013°52'713.8
2018-May-19 04:30N 36°37' E 013°45'59113.6
2018-May-17 09:09N 40°47' E 002°19'614.4
2018-May-17 08:42N 40°49' E 002°11'314.2
2018-May-17 08:30N 40°50' E 002°07'713.8
2018-May-17 08:00N 40°52' E 001°59'713.5
2018-May-17 07:30N 40°54' E 001°50'713.3
2018-May-17 07:00N 40°56' E 001°42'  
Track history (hours):
 
Tides and Currents Weather Stations Pressure Air Temp Water Temp Dewpoint Dewpoint Depression Visibility Wind Speed Wind Dir Waves Ship Positions

Phaethon

Last reported at 2018-May-26 04:20 UTC. Time now 2018-May-26 04:30 UTC.
Position N 36°58' E 001°04'.

Length 274 m; draft 16 m.

Type: Ship. MMSI: 240836000.

Date/timePositionNaut miles runAvg speedWind from/ knotsBaromVisibWave heightAir tempDewpointWater temp
2018-May-26 04:20N 36°58' E 001°04'59212.1
2018-May-24 03:24N 36°44' E 013°23'512.6
2018-May-24 03:00N 36°41' E 013°28'612.6
2018-May-24 02:30N 36°38' E 013°35'612.4
2018-May-24 02:00N 36°35' E 013°42'612.2
2018-May-24 01:30N 36°34' E 013°49'612.3
2018-May-24 01:00N 36°32' E 013°57'612.4
2018-May-24 00:30N 36°30' E 014°04'612.4
2018-May-24 00:00N 36°28' E 014°11'612.2
2018-May-23 23:30N 36°26' E 014°19'812.2
2018-May-23 22:52N 36°24' E 014°28'512.3
2018-May-23 22:30N 36°23' E 014°33'612.3
2018-May-23 22:00N 36°20' E 014°40'  
2018-May-21 14:38N 37°09' E 015°47'7 1.1
2018-May-21 08:09N 37°05' E 015°40'8 1.2
2018-May-21 02:00N 37°11' E 015°45'2 1.2
2018-May-21 00:30N 37°13' E 015°46'1 1.1
2018-May-21 00:00N 37°13' E 015°46'1 1.2
2018-May-20 23:20N 37°14' E 015°46'1 1.3
2018-May-20 22:55N 37°15' E 015°46'1 1.2
2018-May-20 22:29N 37°15' E 015°45'9 2.1
2018-May-20 18:18N 37°13' E 015°35'2 2.1
2018-May-20 17:25N 37°15' E 015°33'4 1.8
2018-May-20 15:00N 37°19' E 015°33'1 0.9
2018-May-20 14:01N 37°19' E 015°34'0 0.9
2018-May-20 13:56N 37°19' E 015°34'0 1.0
2018-May-20 13:30N 37°19' E 015°34'1 1.0
2018-May-20 12:35N 37°19' E 015°35'1 1.0
2018-May-20 12:01N 37°19' E 015°36'0 1.0
2018-May-20 11:36N 37°19' E 015°37'3 1.7
2018-May-20 09:31N 37°16' E 015°37'0 3.7
2018-May-20 09:28N 37°16' E 015°37'2 3.7
2018-May-20 09:00N 37°14' E 015°37'4 1.5
2018-May-20 06:05N 37°10' E 015°39'0 1.2
2018-May-20 05:59N 37°10' E 015°39'6 0.4
2018-May-19 15:31N 37°12' E 015°32'0 5.4
2018-May-19 15:28N 37°12' E 015°31'69 8.6
2018-May-19 07:27N 36°23' E 014°32'613.3
2018-May-19 07:00N 36°25' E 014°25'713.4
2018-May-19 06:30N 36°27' E 014°17'713.5
2018-May-19 06:00N 36°29' E 014°09'713.8
2018-May-19 05:30N 36°31' E 014°01'714.1
2018-May-19 05:00N 36°34' E 013°52'713.8
2018-May-19 04:30N 36°37' E 013°45'59113.6
2018-May-17 09:09N 40°47' E 002°19'614.4
2018-May-17 08:42N 40°49' E 002°11'314.2
2018-May-17 08:30N 40°50' E 002°07'713.8
2018-May-17 08:00N 40°52' E 001°59'713.5
2018-May-17 07:30N 40°54' E 001°50'713.3
2018-May-17 07:00N 40°56' E 001°42'  

Dump ship's entire track history